sensor_id;sensor_type;location;lat;lon;timestamp;temperature;humidity
3996;DHT22;2012;49.794;9.722;2023-02-12T00:00:49;4.80;99.90
3996;DHT22;2012;49.794;9.722;2023-02-12T00:03:17;4.90;99.90
3996;DHT22;2012;49.794;9.722;2023-02-12T00:05:44;4.90;99.90
3996;DHT22;2012;49.794;9.722;2023-02-12T00:08:10;4.90;99.90
3996;DHT22;2012;49.794;9.722;2023-02-12T00:10:41;4.80;99.90
3996;DHT22;2012;49.794;9.722;2023-02-12T00:13:09;4.80;99.90
3996;DHT22;2012;49.794;9.722;2023-02-12T00:15:41;4.80;99.90
3996;DHT22;2012;49.794;9.722;2023-02-12T00:18:08;4.80;99.90
3996;DHT22;2012;49.794;9.722;2023-02-12T00:20:36;4.80;99.90
3996;DHT22;2012;49.794;9.722;2023-02-12T00:23:04;4.80;99.90
3996;DHT22;2012;49.794;9.722;2023-02-12T00:25:31;4.80;99.90
3996;DHT22;2012;49.794;9.722;2023-02-12T00:27:57;4.80;99.90
3996;DHT22;2012;49.794;9.722;2023-02-12T00:30:25;4.80;99.90
3996;DHT22;2012;49.794;9.722;2023-02-12T00:32:51;4.80;99.90
3996;DHT22;2012;49.794;9.722;2023-02-12T00:35:18;4.70;99.90
3996;DHT22;2012;49.794;9.722;2023-02-12T00:37:45;4.70;99.90
3996;DHT22;2012;49.794;9.722;2023-02-12T00:40:12;4.70;99.90
3996;DHT22;2012;49.794;9.722;2023-02-12T00:42:39;4.70;99.90
3996;DHT22;2012;49.794;9.722;2023-02-12T00:45:06;4.80;99.90
3996;DHT22;2012;49.794;9.722;2023-02-12T00:47:33;4.70;99.90
3996;DHT22;2012;49.794;9.722;2023-02-12T00:49:59;4.70;99.90
3996;DHT22;2012;49.794;9.722;2023-02-12T00:52:26;4.70;99.90
3996;DHT22;2012;49.794;9.722;2023-02-12T00:54:53;4.70;99.90
3996;DHT22;2012;49.794;9.722;2023-02-12T00:57:19;4.60;99.90
3996;DHT22;2012;49.794;9.722;2023-02-12T00:59:46;4.60;99.90
3996;DHT22;2012;49.794;9.722;2023-02-12T01:02:13;4.70;99.90
3996;DHT22;2012;49.794;9.722;2023-02-12T01:04:40;4.70;99.90
3996;DHT22;2012;49.794;9.722;2023-02-12T01:07:07;4.50;99.90
3996;DHT22;2012;49.794;9.722;2023-02-12T01:09:34;4.50;99.90
3996;DHT22;2012;49.794;9.722;2023-02-12T01:12:00;4.50;99.90
3996;DHT22;2012;49.794;9.722;2023-02-12T01:14:27;4.40;99.90
3996;DHT22;2012;49.794;9.722;2023-02-12T01:16:54;4.30;99.90
3996;DHT22;2012;49.794;9.722;2023-02-12T01:19:21;4.30;99.90
3996;DHT22;2012;49.794;9.722;2023-02-12T01:21:47;4.30;99.90
3996;DHT22;2012;49.794;9.722;2023-02-12T01:24:14;4.20;99.90
3996;DHT22;2012;49.794;9.722;2023-02-12T01:26:41;4.30;99.90
3996;DHT22;2012;49.794;9.722;2023-02-12T01:29:07;4.20;99.90
3996;DHT22;2012;49.794;9.722;2023-02-12T01:31:38;4.20;99.90
3996;DHT22;2012;49.794;9.722;2023-02-12T01:34:06;4.10;99.90
3996;DHT22;2012;49.794;9.722;2023-02-12T01:36:33;4.00;99.90
3996;DHT22;2012;49.794;9.722;2023-02-12T01:39:01;4.00;99.90
3996;DHT22;2012;49.794;9.722;2023-02-12T01:41:34;4.00;99.90
3996;DHT22;2012;49.794;9.722;2023-02-12T01:44:14;4.10;99.90
3996;DHT22;2012;49.794;9.722;2023-02-12T01:46:43;4.00;99.90
3996;DHT22;2012;49.794;9.722;2023-02-12T01:49:23;3.90;99.90
3996;DHT22;2012;49.794;9.722;2023-02-12T01:51:57;3.80;99.90
3996;DHT22;2012;49.794;9.722;2023-02-12T01:54:25;3.90;99.90
3996;DHT22;2012;49.794;9.722;2023-02-12T01:56:52;3.90;99.90
3996;DHT22;2012;49.794;9.722;2023-02-12T01:59:20;3.60;99.90
3996;DHT22;2012;49.794;9.722;2023-02-12T02:01:47;3.60;99.90
3996;DHT22;2012;49.794;9.722;2023-02-12T02:04:21;3.60;99.90
3996;DHT22;2012;49.794;9.722;2023-02-12T02:06:59;3.40;99.90
3996;DHT22;2012;49.794;9.722;2023-02-12T02:09:28;3.50;99.90
3996;DHT22;2012;49.794;9.722;2023-02-12T02:11:55;3.60;99.90
3996;DHT22;2012;49.794;9.722;2023-02-12T02:14:41;3.60;99.90
3996;DHT22;2012;49.794;9.722;2023-02-12T02:17:32;3.60;99.90
3996;DHT22;2012;49.794;9.722;2023-02-12T02:20:41;3.60;99.90
3996;DHT22;2012;49.794;9.722;2023-02-12T02:31:55;3.70;99.90
3996;DHT22;2012;49.794;9.722;2023-02-12T02:34:42;3.80;99.90
3996;DHT22;2012;49.794;9.722;2023-02-12T02:40:10;3.70;99.90
3996;DHT22;2012;49.794;9.722;2023-02-12T02:42:44;3.80;99.90
3996;DHT22;2012;49.794;9.722;2023-02-12T02:45:14;3.70;99.90
3996;DHT22;2012;49.794;9.722;2023-02-12T02:47:48;3.80;99.90
3996;DHT22;2012;49.794;9.722;2023-02-12T02:50:23;3.70;99.90
3996;DHT22;2012;49.794;9.722;2023-02-12T02:52:58;3.80;99.90
3996;DHT22;2012;49.794;9.722;2023-02-12T02:55:31;3.90;99.90
3996;DHT22;2012;49.794;9.722;2023-02-12T02:58:04;3.70;99.90
3996;DHT22;2012;49.794;9.722;2023-02-12T03:00:39;3.80;99.90
3996;DHT22;2012;49.794;9.722;2023-02-12T03:03:14;3.80;99.90
3996;DHT22;2012;49.794;9.722;2023-02-12T03:05:47;3.70;99.90
3996;DHT22;2012;49.794;9.722;2023-02-12T03:08:28;3.70;99.90
3996;DHT22;2012;49.794;9.722;2023-02-12T03:11:09;3.60;99.90
3996;DHT22;2012;49.794;9.722;2023-02-12T03:16:29;3.50;99.90
3996;DHT22;2012;49.794;9.722;2023-02-12T03:19:03;3.60;99.90
3996;DHT22;2012;49.794;9.722;2023-02-12T03:21:43;3.40;99.90
3996;DHT22;2012;49.794;9.722;2023-02-12T03:24:17;3.50;99.90
3996;DHT22;2012;49.794;9.722;2023-02-12T03:26:58;3.50;99.90
3996;DHT22;2012;49.794;9.722;2023-02-12T03:29:29;3.60;99.90
3996;DHT22;2012;49.794;9.722;2023-02-12T03:34:39;3.70;99.90
3996;DHT22;2012;49.794;9.722;2023-02-12T03:37:16;3.60;99.90
3996;DHT22;2012;49.794;9.722;2023-02-12T03:48:17;3.60;99.90
3996;DHT22;2012;49.794;9.722;2023-02-12T03:51:37;3.60;99.90
3996;DHT22;2012;49.794;9.722;2023-02-12T03:53:43;3.70;99.90
3996;DHT22;2012;49.794;9.722;2023-02-12T03:59:06;3.60;99.90
3996;DHT22;2012;49.794;9.722;2023-02-12T04:01:34;3.60;99.90
3996;DHT22;2012;49.794;9.722;2023-02-12T04:04:04;3.60;99.90
3996;DHT22;2012;49.794;9.722;2023-02-12T04:06:31;3.40;99.90
3996;DHT22;2012;49.794;9.722;2023-02-12T04:09:01;3.40;99.90
3996;DHT22;2012;49.794;9.722;2023-02-12T04:14:35;3.40;99.90
3996;DHT22;2012;49.794;9.722;2023-02-12T04:17:23;3.40;99.90
3996;DHT22;2012;49.794;9.722;2023-02-12T04:20:02;3.50;99.90
3996;DHT22;2012;49.794;9.722;2023-02-12T04:30:42;3.40;99.90
3996;DHT22;2012;49.794;9.722;2023-02-12T04:33:15;3.40;99.90
3996;DHT22;2012;49.794;9.722;2023-02-12T04:38:34;3.30;99.90
3996;DHT22;2012;49.794;9.722;2023-02-12T04:41:04;3.30;99.90
3996;DHT22;2012;49.794;9.722;2023-02-12T04:43:34;3.20;99.90
3996;DHT22;2012;49.794;9.722;2023-02-12T04:46:04;3.10;99.90
3996;DHT22;2012;49.794;9.722;2023-02-12T04:48:31;3.00;99.90
3996;DHT22;2012;49.794;9.722;2023-02-12T04:50:57;3.00;99.90
3996;DHT22;2012;49.794;9.722;2023-02-12T04:53:24;3.00;99.90
3996;DHT22;2012;49.794;9.722;2023-02-12T04:55:51;3.00;99.90
3996;DHT22;2012;49.794;9.722;2023-02-12T04:58:18;3.00;99.90
3996;DHT22;2012;49.794;9.722;2023-02-12T05:00:45;2.90;99.90
3996;DHT22;2012;49.794;9.722;2023-02-12T05:03:11;2.90;99.90
3996;DHT22;2012;49.794;9.722;2023-02-12T05:05:38;2.80;99.90
3996;DHT22;2012;49.794;9.722;2023-02-12T05:08:05;2.90;99.90
3996;DHT22;2012;49.794;9.722;2023-02-12T05:10:31;2.90;99.90
3996;DHT22;2012;49.794;9.722;2023-02-12T05:12:58;2.90;99.90
3996;DHT22;2012;49.794;9.722;2023-02-12T05:15:25;2.90;99.90
3996;DHT22;2012;49.794;9.722;2023-02-12T05:17:52;2.90;99.90
3996;DHT22;2012;49.794;9.722;2023-02-12T05:20:18;3.00;99.90
3996;DHT22;2012;49.794;9.722;2023-02-12T05:22:45;2.80;99.90
3996;DHT22;2012;49.794;9.722;2023-02-12T05:25:12;2.90;99.90
3996;DHT22;2012;49.794;9.722;2023-02-12T05:27:38;2.60;99.90
3996;DHT22;2012;49.794;9.722;2023-02-12T05:30:06;2.60;99.90
3996;DHT22;2012;49.794;9.722;2023-02-12T05:32:34;2.60;99.90
3996;DHT22;2012;49.794;9.722;2023-02-12T05:35:01;2.60;99.90
3996;DHT22;2012;49.794;9.722;2023-02-12T05:37:28;2.70;99.90
3996;DHT22;2012;49.794;9.722;2023-02-12T05:39:57;2.50;99.90
3996;DHT22;2012;49.794;9.722;2023-02-12T05:42:23;2.40;99.90
3996;DHT22;2012;49.794;9.722;2023-02-12T05:44:50;2.40;99.90
3996;DHT22;2012;49.794;9.722;2023-02-12T05:47:17;2.40;99.90
3996;DHT22;2012;49.794;9.722;2023-02-12T05:49:44;2.40;99.90
3996;DHT22;2012;49.794;9.722;2023-02-12T05:52:10;2.40;99.90
3996;DHT22;2012;49.794;9.722;2023-02-12T05:54:37;2.50;99.90
3996;DHT22;2012;49.794;9.722;2023-02-12T05:57:05;2.50;99.90
3996;DHT22;2012;49.794;9.722;2023-02-12T05:59:32;2.40;99.90
3996;DHT22;2012;49.794;9.722;2023-02-12T06:01:59;2.40;99.90
3996;DHT22;2012;49.794;9.722;2023-02-12T06:04:29;2.40;99.90
3996;DHT22;2012;49.794;9.722;2023-02-12T06:06:56;2.20;99.90
3996;DHT22;2012;49.794;9.722;2023-02-12T06:09:23;2.10;99.90
3996;DHT22;2012;49.794;9.722;2023-02-12T06:11:50;2.10;99.90
3996;DHT22;2012;49.794;9.722;2023-02-12T06:14:18;2.20;99.90
3996;DHT22;2012;49.794;9.722;2023-02-12T06:16:49;2.20;99.90
3996;DHT22;2012;49.794;9.722;2023-02-12T06:19:17;2.20;99.90
3996;DHT22;2012;49.794;9.722;2023-02-12T06:21:43;2.30;99.90
3996;DHT22;2012;49.794;9.722;2023-02-12T06:24:14;2.30;99.90
3996;DHT22;2012;49.794;9.722;2023-02-12T06:26:42;2.20;99.90
3996;DHT22;2012;49.794;9.722;2023-02-12T06:29:09;2.30;99.90
3996;DHT22;2012;49.794;9.722;2023-02-12T06:31:36;2.30;99.90
3996;DHT22;2012;49.794;9.722;2023-02-12T06:34:07;2.40;99.90
3996;DHT22;2012;49.794;9.722;2023-02-12T06:36:36;2.50;99.90
3996;DHT22;2012;49.794;9.722;2023-02-12T06:39:04;2.50;99.90
3996;DHT22;2012;49.794;9.722;2023-02-12T06:41:30;2.50;99.90
3996;DHT22;2012;49.794;9.722;2023-02-12T06:43:57;2.60;99.90
3996;DHT22;2012;49.794;9.722;2023-02-12T06:46:25;2.60;99.90
3996;DHT22;2012;49.794;9.722;2023-02-12T06:48:53;2.60;99.90
3996;DHT22;2012;49.794;9.722;2023-02-12T06:51:20;2.60;99.90
3996;DHT22;2012;49.794;9.722;2023-02-12T06:53:50;2.70;99.90
3996;DHT22;2012;49.794;9.722;2023-02-12T06:56:18;2.80;99.90
3996;DHT22;2012;49.794;9.722;2023-02-12T06:58:47;2.70;99.90
3996;DHT22;2012;49.794;9.722;2023-02-12T07:01:19;2.70;99.90
3996;DHT22;2012;49.794;9.722;2023-02-12T07:03:52;2.80;99.90
3996;DHT22;2012;49.794;9.722;2023-02-12T07:06:19;2.80;99.90
3996;DHT22;2012;49.794;9.722;2023-02-12T07:08:47;2.90;99.90
3996;DHT22;2012;49.794;9.722;2023-02-12T07:11:14;2.80;99.90
3996;DHT22;2012;49.794;9.722;2023-02-12T07:13:42;2.80;99.90
3996;DHT22;2012;49.794;9.722;2023-02-12T07:16:12;2.90;99.90
3996;DHT22;2012;49.794;9.722;2023-02-12T07:18:39;2.90;99.90
3996;DHT22;2012;49.794;9.722;2023-02-12T07:21:07;2.90;99.90
3996;DHT22;2012;49.794;9.722;2023-02-12T07:23:34;3.00;99.90
3996;DHT22;2012;49.794;9.722;2023-02-12T07:26:11;3.00;99.90
3996;DHT22;2012;49.794;9.722;2023-02-12T07:28:39;3.00;99.90
3996;DHT22;2012;49.794;9.722;2023-02-12T07:31:10;3.10;99.90
3996;DHT22;2012;49.794;9.722;2023-02-12T07:33:38;3.10;99.90
3996;DHT22;2012;49.794;9.722;2023-02-12T07:36:07;3.20;99.90
3996;DHT22;2012;49.794;9.722;2023-02-12T07:38:34;3.20;99.90
3996;DHT22;2012;49.794;9.722;2023-02-12T07:41:10;3.20;99.90
3996;DHT22;2012;49.794;9.722;2023-02-12T07:43:41;3.20;99.90
3996;DHT22;2012;49.794;9.722;2023-02-12T07:46:14;3.20;99.90
3996;DHT22;2012;49.794;9.722;2023-02-12T07:48:43;3.20;99.90
3996;DHT22;2012;49.794;9.722;2023-02-12T07:51:12;3.20;99.90
3996;DHT22;2012;49.794;9.722;2023-02-12T07:53:40;3.20;99.90
3996;DHT22;2012;49.794;9.722;2023-02-12T07:56:12;3.10;99.90
3996;DHT22;2012;49.794;9.722;2023-02-12T07:58:40;3.20;99.90
3996;DHT22;2012;49.794;9.722;2023-02-12T08:01:17;4.40;99.90
3996;DHT22;2012;49.794;9.722;2023-02-12T08:03:45;6.30;99.90
3996;DHT22;2012;49.794;9.722;2023-02-12T08:06:19;7.30;99.90
3996;DHT22;2012;49.794;9.722;2023-02-12T08:08:46;6.50;99.90
3996;DHT22;2012;49.794;9.722;2023-02-12T08:11:14;6.90;99.90
3996;DHT22;2012;49.794;9.722;2023-02-12T08:13:41;6.50;99.90
3996;DHT22;2012;49.794;9.722;2023-02-12T08:16:16;5.10;99.90
3996;DHT22;2012;49.794;9.722;2023-02-12T08:18:43;4.50;99.90
3996;DHT22;2012;49.794;9.722;2023-02-12T08:21:16;4.20;99.90
3996;DHT22;2012;49.794;9.722;2023-02-12T08:23:44;4.00;99.90
3996;DHT22;2012;49.794;9.722;2023-02-12T08:26:12;3.90;99.90
3996;DHT22;2012;49.794;9.722;2023-02-12T08:28:45;4.00;99.90
3996;DHT22;2012;49.794;9.722;2023-02-12T08:31:18;3.90;99.90
3996;DHT22;2012;49.794;9.722;2023-02-12T08:33:46;3.90;99.90
3996;DHT22;2012;49.794;9.722;2023-02-12T08:36:15;3.90;99.90
3996;DHT22;2012;49.794;9.722;2023-02-12T08:38:43;4.00;99.90
3996;DHT22;2012;49.794;9.722;2023-02-12T08:41:20;4.00;99.90
3996;DHT22;2012;49.794;9.722;2023-02-12T08:43:48;4.00;99.90
3996;DHT22;2012;49.794;9.722;2023-02-12T08:46:20;4.00;99.90
3996;DHT22;2012;49.794;9.722;2023-02-12T08:48:54;4.00;99.90
3996;DHT22;2012;49.794;9.722;2023-02-12T08:51:27;4.10;99.90
3996;DHT22;2012;49.794;9.722;2023-02-12T08:53:55;4.00;99.90
3996;DHT22;2012;49.794;9.722;2023-02-12T08:56:23;4.00;99.90
3996;DHT22;2012;49.794;9.722;2023-02-12T08:58:50;4.00;99.90
3996;DHT22;2012;49.794;9.722;2023-02-12T09:01:20;4.00;99.90
3996;DHT22;2012;49.794;9.722;2023-02-12T09:03:48;4.20;99.90
3996;DHT22;2012;49.794;9.722;2023-02-12T09:06:17;4.20;99.90
3996;DHT22;2012;49.794;9.722;2023-02-12T09:08:44;4.20;99.90
3996;DHT22;2012;49.794;9.722;2023-02-12T09:11:18;4.30;99.90
3996;DHT22;2012;49.794;9.722;2023-02-12T09:13:46;4.40;99.90
3996;DHT22;2012;49.794;9.722;2023-02-12T09:16:13;4.50;99.90
3996;DHT22;2012;49.794;9.722;2023-02-12T09:18:40;4.60;99.90
3996;DHT22;2012;49.794;9.722;2023-02-12T09:21:16;4.60;99.90
3996;DHT22;2012;49.794;9.722;2023-02-12T09:23:43;4.70;99.90
3996;DHT22;2012;49.794;9.722;2023-02-12T09:26:12;4.70;99.90
3996;DHT22;2012;49.794;9.722;2023-02-12T09:28:40;4.80;99.90
3996;DHT22;2012;49.794;9.722;2023-02-12T09:31:13;4.90;99.90
3996;DHT22;2012;49.794;9.722;2023-02-12T09:33:40;4.90;99.90
3996;DHT22;2012;49.794;9.722;2023-02-12T09:36:10;5.00;99.90
3996;DHT22;2012;49.794;9.722;2023-02-12T09:38:37;5.10;99.90
3996;DHT22;2012;49.794;9.722;2023-02-12T09:47:22;5.30;99.90
3996;DHT22;2012;49.794;9.722;2023-02-12T09:49:55;5.30;99.90
3996;DHT22;2012;49.794;9.722;2023-02-12T09:52:28;5.40;99.90
3996;DHT22;2012;49.794;9.722;2023-02-12T09:54:55;5.40;99.90
3996;DHT22;2012;49.794;9.722;2023-02-12T09:57:33;5.50;99.90
3996;DHT22;2012;49.794;9.722;2023-02-12T10:00:23;5.50;99.90
3996;DHT22;2012;49.794;9.722;2023-02-12T10:02:52;5.60;99.90
3996;DHT22;2012;49.794;9.722;2023-02-12T10:05:30;5.70;99.90
3996;DHT22;2012;49.794;9.722;2023-02-12T10:11:24;5.90;99.90
3996;DHT22;2012;49.794;9.722;2023-02-12T10:16:59;6.10;99.90
3996;DHT22;2012;49.794;9.722;2023-02-12T10:25:46;6.20;99.90
3996;DHT22;2012;49.794;9.722;2023-02-12T10:28:30;6.40;99.90
3996;DHT22;2012;49.794;9.722;2023-02-12T10:31:01;6.50;99.90
3996;DHT22;2012;49.794;9.722;2023-02-12T10:33:45;6.60;99.90
3996;DHT22;2012;49.794;9.722;2023-02-12T10:36:41;6.70;99.90
3996;DHT22;2012;49.794;9.722;2023-02-12T10:39:18;6.80;99.90
3996;DHT22;2012;49.794;9.722;2023-02-12T10:41:57;6.70;99.90
3996;DHT22;2012;49.794;9.722;2023-02-12T10:44:25;6.80;99.90
3996;DHT22;2012;49.794;9.722;2023-02-12T10:46:52;6.80;99.90
3996;DHT22;2012;49.794;9.722;2023-02-12T10:49:20;7.00;99.90
3996;DHT22;2012;49.794;9.722;2023-02-12T10:52:18;7.00;99.90
3996;DHT22;2012;49.794;9.722;2023-02-12T10:54:50;7.20;99.90
3996;DHT22;2012;49.794;9.722;2023-02-12T10:57:26;7.20;99.90
3996;DHT22;2012;49.794;9.722;2023-02-12T10:59:54;7.30;99.90
3996;DHT22;2012;49.794;9.722;2023-02-12T11:02:29;7.30;99.90
3996;DHT22;2012;49.794;9.722;2023-02-12T11:04:57;7.30;99.90
3996;DHT22;2012;49.794;9.722;2023-02-12T11:07:26;7.40;99.90
3996;DHT22;2012;49.794;9.722;2023-02-12T11:09:55;7.40;99.90
3996;DHT22;2012;49.794;9.722;2023-02-12T11:12:38;7.40;99.90
3996;DHT22;2012;49.794;9.722;2023-02-12T11:15:12;7.50;99.90
3996;DHT22;2012;49.794;9.722;2023-02-12T11:17:42;7.60;99.90
3996;DHT22;2012;49.794;9.722;2023-02-12T11:22:57;7.70;99.90
3996;DHT22;2012;49.794;9.722;2023-02-12T11:25:30;7.80;99.90
3996;DHT22;2012;49.794;9.722;2023-02-12T11:30:31;7.90;99.90
3996;DHT22;2012;49.794;9.722;2023-02-12T11:35:51;7.90;99.90
3996;DHT22;2012;49.794;9.722;2023-02-12T11:38:23;8.00;99.90
3996;DHT22;2012;49.794;9.722;2023-02-12T11:40:55;8.20;99.90
3996;DHT22;2012;49.794;9.722;2023-02-12T11:43:23;8.30;99.90
3996;DHT22;2012;49.794;9.722;2023-02-12T11:45:52;8.20;99.90
3996;DHT22;2012;49.794;9.722;2023-02-12T11:48:57;8.30;99.90
3996;DHT22;2012;49.794;9.722;2023-02-12T11:51:26;8.30;99.90
3996;DHT22;2012;49.794;9.722;2023-02-12T11:53:57;8.50;99.90
3996;DHT22;2012;49.794;9.722;2023-02-12T11:56:39;8.60;99.90
3996;DHT22;2012;49.794;9.722;2023-02-12T11:59:16;8.70;99.90
3996;DHT22;2012;49.794;9.722;2023-02-12T12:01:47;8.80;99.90
3996;DHT22;2012;49.794;9.722;2023-02-12T12:04:19;8.90;99.90
3996;DHT22;2012;49.794;9.722;2023-02-12T12:06:56;8.80;99.90
3996;DHT22;2012;49.794;9.722;2023-02-12T12:09:34;9.00;99.90
3996;DHT22;2012;49.794;9.722;2023-02-12T12:14:34;9.20;99.90
3996;DHT22;2012;49.794;9.722;2023-02-12T12:17:26;9.40;99.90
3996;DHT22;2012;49.794;9.722;2023-02-12T12:20:20;9.40;99.90
3996;DHT22;2012;49.794;9.722;2023-02-12T12:22:56;9.30;99.90
3996;DHT22;2012;49.794;9.722;2023-02-12T12:25:43;9.10;99.90
3996;DHT22;2012;49.794;9.722;2023-02-12T12:28:41;9.20;99.90
3996;DHT22;2012;49.794;9.722;2023-02-12T12:31:19;9.30;99.90
3996;DHT22;2012;49.794;9.722;2023-02-12T12:36:29;10.00;99.90
3996;DHT22;2012;49.794;9.722;2023-02-12T12:47:28;10.10;99.90
3996;DHT22;2012;49.794;9.722;2023-02-12T12:58:17;10.80;99.90
3996;DHT22;2012;49.794;9.722;2023-02-12T13:06:49;11.50;99.90
3996;DHT22;2012;49.794;9.722;2023-02-12T13:09:32;11.40;99.90
3996;DHT22;2012;49.794;9.722;2023-02-12T13:17:30;10.70;99.90
3996;DHT22;2012;49.794;9.722;2023-02-12T13:20:12;10.60;99.90
3996;DHT22;2012;49.794;9.722;2023-02-12T13:22:48;10.30;99.90
3996;DHT22;2012;49.794;9.722;2023-02-12T13:27:50;10.30;99.90
3996;DHT22;2012;49.794;9.722;2023-02-12T13:30:21;10.20;99.90
3996;DHT22;2012;49.794;9.722;2023-02-12T13:33:53;10.20;99.90
3996;DHT22;2012;49.794;9.722;2023-02-12T13:35:52;10.30;99.90
3996;DHT22;2012;49.794;9.722;2023-02-12T13:38:30;10.40;99.90
3996;DHT22;2012;49.794;9.722;2023-02-12T13:41:02;10.30;99.90
3996;DHT22;2012;49.794;9.722;2023-02-12T13:46:53;10.10;99.90
3996;DHT22;2012;49.794;9.722;2023-02-12T13:52:11;10.10;99.90
3996;DHT22;2012;49.794;9.722;2023-02-12T13:57:31;10.20;99.90
3996;DHT22;2012;49.794;9.722;2023-02-12T13:59:57;10.20;99.90
3996;DHT22;2012;49.794;9.722;2023-02-12T14:07:50;10.00;99.90
3996;DHT22;2012;49.794;9.722;2023-02-12T14:10:27;10.00;99.90
3996;DHT22;2012;49.794;9.722;2023-02-12T14:12:58;10.00;99.90
3996;DHT22;2012;49.794;9.722;2023-02-12T14:15:37;10.00;99.90
3996;DHT22;2012;49.794;9.722;2023-02-12T14:18:26;9.90;99.90
3996;DHT22;2012;49.794;9.722;2023-02-12T14:23:40;10.00;99.90
3996;DHT22;2012;49.794;9.722;2023-02-12T14:26:16;9.90;99.90
3996;DHT22;2012;49.794;9.722;2023-02-12T14:31:29;9.90;99.90
3996;DHT22;2012;49.794;9.722;2023-02-12T14:44:47;9.80;99.90
3996;DHT22;2012;49.794;9.722;2023-02-12T14:50:06;9.70;99.90
3996;DHT22;2012;49.794;9.722;2023-02-12T14:52:39;9.60;99.90
3996;DHT22;2012;49.794;9.722;2023-02-12T14:55:20;9.60;99.90
3996;DHT22;2012;49.794;9.722;2023-02-12T14:57:48;9.60;99.90
3996;DHT22;2012;49.794;9.722;2023-02-12T15:08:53;9.50;99.90
3996;DHT22;2012;49.794;9.722;2023-02-12T15:11:35;9.50;99.90
3996;DHT22;2012;49.794;9.722;2023-02-12T15:14:44;9.40;99.90
3996;DHT22;2012;49.794;9.722;2023-02-12T15:17:21;9.30;99.90
3996;DHT22;2012;49.794;9.722;2023-02-12T15:20:07;9.30;99.90
3996;DHT22;2012;49.794;9.722;2023-02-12T15:22:39;9.30;99.90
3996;DHT22;2012;49.794;9.722;2023-02-12T15:25:26;9.40;99.90
3996;DHT22;2012;49.794;9.722;2023-02-12T15:28:03;9.30;99.90
3996;DHT22;2012;49.794;9.722;2023-02-12T15:30:33;9.30;99.90
3996;DHT22;2012;49.794;9.722;2023-02-12T15:33:05;9.20;99.90
3996;DHT22;2012;49.794;9.722;2023-02-12T15:35:36;9.20;99.90
3996;DHT22;2012;49.794;9.722;2023-02-12T15:38:04;9.00;99.90
3996;DHT22;2012;49.794;9.722;2023-02-12T15:40:33;9.00;99.90
3996;DHT22;2012;49.794;9.722;2023-02-12T15:43:03;9.00;99.90
3996;DHT22;2012;49.794;9.722;2023-02-12T15:45:32;8.90;99.90
3996;DHT22;2012;49.794;9.722;2023-02-12T15:48:12;8.90;99.90
3996;DHT22;2012;49.794;9.722;2023-02-12T15:53:15;8.90;99.90
3996;DHT22;2012;49.794;9.722;2023-02-12T15:55:45;8.80;99.90
3996;DHT22;2012;49.794;9.722;2023-02-12T16:00:48;8.90;99.90
3996;DHT22;2012;49.794;9.722;2023-02-12T16:03:21;8.70;99.90
3996;DHT22;2012;49.794;9.722;2023-02-12T16:05:49;8.70;99.90
3996;DHT22;2012;49.794;9.722;2023-02-12T16:08:19;8.70;99.90
3996;DHT22;2012;49.794;9.722;2023-02-12T16:10:48;8.70;99.90
3996;DHT22;2012;49.794;9.722;2023-02-12T16:13:20;8.70;99.90
3996;DHT22;2012;49.794;9.722;2023-02-12T16:18:38;8.70;99.90
3996;DHT22;2012;49.794;9.722;2023-02-12T16:21:11;8.70;99.90
3996;DHT22;2012;49.794;9.722;2023-02-12T16:23:42;8.70;99.90
3996;DHT22;2012;49.794;9.722;2023-02-12T16:26:16;8.60;99.90
3996;DHT22;2012;49.794;9.722;2023-02-12T16:28:49;8.60;99.90
3996;DHT22;2012;49.794;9.722;2023-02-12T16:31:17;8.60;99.90
3996;DHT22;2012;49.794;9.722;2023-02-12T16:33:47;8.50;99.90
3996;DHT22;2012;49.794;9.722;2023-02-12T16:38:58;8.50;99.90
3996;DHT22;2012;49.794;9.722;2023-02-12T16:41:32;8.50;99.90
3996;DHT22;2012;49.794;9.722;2023-02-12T16:46:43;8.50;99.90
3996;DHT22;2012;49.794;9.722;2023-02-12T16:49:15;8.50;99.90
3996;DHT22;2012;49.794;9.722;2023-02-12T16:51:44;8.50;99.90
3996;DHT22;2012;49.794;9.722;2023-02-12T16:54:33;8.50;99.90
3996;DHT22;2012;49.794;9.722;2023-02-12T16:57:00;8.40;99.90
3996;DHT22;2012;49.794;9.722;2023-02-12T16:59:28;8.40;99.90
3996;DHT22;2012;49.794;9.722;2023-02-12T17:01:57;8.40;99.90
3996;DHT22;2012;49.794;9.722;2023-02-12T17:04:24;8.40;99.90
3996;DHT22;2012;49.794;9.722;2023-02-12T17:06:51;8.40;99.90
3996;DHT22;2012;49.794;9.722;2023-02-12T17:09:18;8.30;99.90
3996;DHT22;2012;49.794;9.722;2023-02-12T17:11:45;8.30;99.90
3996;DHT22;2012;49.794;9.722;2023-02-12T17:14:15;8.30;99.90
3996;DHT22;2012;49.794;9.722;2023-02-12T17:16:43;8.40;99.90
3996;DHT22;2012;49.794;9.722;2023-02-12T17:19:10;8.40;99.90
3996;DHT22;2012;49.794;9.722;2023-02-12T17:21:40;8.20;99.90
3996;DHT22;2012;49.794;9.722;2023-02-12T17:24:20;8.10;99.90
3996;DHT22;2012;49.794;9.722;2023-02-12T17:26:48;8.10;99.90
3996;DHT22;2012;49.794;9.722;2023-02-12T17:29:17;8.00;99.90
3996;DHT22;2012;49.794;9.722;2023-02-12T17:31:44;8.10;99.90
3996;DHT22;2012;49.794;9.722;2023-02-12T17:34:12;8.10;99.90
3996;DHT22;2012;49.794;9.722;2023-02-12T17:36:39;8.20;99.90
3996;DHT22;2012;49.794;9.722;2023-02-12T17:39:07;8.20;99.90
3996;DHT22;2012;49.794;9.722;2023-02-12T17:41:34;8.20;99.90
3996;DHT22;2012;49.794;9.722;2023-02-12T17:44:01;8.20;99.90
3996;DHT22;2012;49.794;9.722;2023-02-12T17:46:29;8.20;99.90
3996;DHT22;2012;49.794;9.722;2023-02-12T17:48:56;8.10;99.90
3996;DHT22;2012;49.794;9.722;2023-02-12T17:51:23;8.10;99.90
3996;DHT22;2012;49.794;9.722;2023-02-12T17:53:50;8.10;99.90
3996;DHT22;2012;49.794;9.722;2023-02-12T17:56:20;8.10;99.90
3996;DHT22;2012;49.794;9.722;2023-02-12T17:58:48;8.10;99.90
3996;DHT22;2012;49.794;9.722;2023-02-12T18:01:17;8.10;99.90
3996;DHT22;2012;49.794;9.722;2023-02-12T18:03:44;8.10;99.90
3996;DHT22;2012;49.794;9.722;2023-02-12T18:06:11;8.10;99.90
3996;DHT22;2012;49.794;9.722;2023-02-12T18:08:42;8.10;99.90
3996;DHT22;2012;49.794;9.722;2023-02-12T18:11:10;8.10;99.90
3996;DHT22;2012;49.794;9.722;2023-02-12T18:13:37;8.10;99.90
3996;DHT22;2012;49.794;9.722;2023-02-12T18:16:06;8.10;99.90
3996;DHT22;2012;49.794;9.722;2023-02-12T18:18:33;8.10;99.90
3996;DHT22;2012;49.794;9.722;2023-02-12T18:21:00;8.10;99.90
3996;DHT22;2012;49.794;9.722;2023-02-12T18:23:27;8.10;99.90
3996;DHT22;2012;49.794;9.722;2023-02-12T18:25:54;8.10;99.90
3996;DHT22;2012;49.794;9.722;2023-02-12T18:28:20;8.10;99.90
3996;DHT22;2012;49.794;9.722;2023-02-12T18:30:54;8.10;99.90
3996;DHT22;2012;49.794;9.722;2023-02-12T18:33:23;8.00;99.90
3996;DHT22;2012;49.794;9.722;2023-02-12T18:38:31;8.00;99.90
3996;DHT22;2012;49.794;9.722;2023-02-12T18:40:58;8.00;99.90
3996;DHT22;2012;49.794;9.722;2023-02-12T18:43:26;8.00;99.90
3996;DHT22;2012;49.794;9.722;2023-02-12T18:45:53;8.00;99.90
3996;DHT22;2012;49.794;9.722;2023-02-12T18:48:20;8.00;99.90
3996;DHT22;2012;49.794;9.722;2023-02-12T18:50:47;8.00;99.90
3996;DHT22;2012;49.794;9.722;2023-02-12T18:53:17;8.00;99.90
3996;DHT22;2012;49.794;9.722;2023-02-12T18:55:44;7.90;99.90
3996;DHT22;2012;49.794;9.722;2023-02-12T18:58:11;8.00;99.90
3996;DHT22;2012;49.794;9.722;2023-02-12T19:00:37;8.00;99.90
3996;DHT22;2012;49.794;9.722;2023-02-12T19:03:04;8.00;99.90
3996;DHT22;2012;49.794;9.722;2023-02-12T19:05:31;8.00;99.90
3996;DHT22;2012;49.794;9.722;2023-02-12T19:07:57;7.90;99.90
3996;DHT22;2012;49.794;9.722;2023-02-12T19:10:24;8.00;99.90
3996;DHT22;2012;49.794;9.722;2023-02-12T19:12:51;8.00;99.90
3996;DHT22;2012;49.794;9.722;2023-02-12T19:15:18;7.90;99.90
3996;DHT22;2012;49.794;9.722;2023-02-12T19:17:45;7.90;99.90
3996;DHT22;2012;49.794;9.722;2023-02-12T19:20:12;7.90;99.90
3996;DHT22;2012;49.794;9.722;2023-02-12T19:22:41;7.90;99.90
3996;DHT22;2012;49.794;9.722;2023-02-12T19:25:08;7.90;99.90